sensor_id;sensor_type;location;lat;lon;timestamp;temperature;humidity
8563;DHT22;16392;52.508;13.468;2022-09-28T00:00:54;8.70;99.90
8563;DHT22;16392;52.508;13.468;2022-09-28T00:03:21;8.70;99.90
8563;DHT22;16392;52.508;13.468;2022-09-28T00:05:49;8.70;99.90
8563;DHT22;16392;52.508;13.468;2022-09-28T00:08:16;8.70;99.90
8563;DHT22;16392;52.508;13.468;2022-09-28T00:10:42;8.70;99.90
8563;DHT22;16392;52.508;13.468;2022-09-28T00:13:10;8.70;99.90
8563;DHT22;16392;52.508;13.468;2022-09-28T00:15:36;8.70;99.90
8563;DHT22;16392;52.508;13.468;2022-09-28T00:18:03;8.70;99.90
8563;DHT22;16392;52.508;13.468;2022-09-28T00:20:30;8.70;99.90
8563;DHT22;16392;52.508;13.468;2022-09-28T00:22:57;8.70;99.90
8563;DHT22;16392;52.508;13.468;2022-09-28T00:25:24;8.70;99.90
8563;DHT22;16392;52.508;13.468;2022-09-28T00:27:52;8.60;99.90
8563;DHT22;16392;52.508;13.468;2022-09-28T00:30:18;8.60;99.90
8563;DHT22;16392;52.508;13.468;2022-09-28T00:32:45;8.60;99.90
8563;DHT22;16392;52.508;13.468;2022-09-28T00:35:12;8.60;99.90
8563;DHT22;16392;52.508;13.468;2022-09-28T00:37:38;8.60;99.90
8563;DHT22;16392;52.508;13.468;2022-09-28T00:40:07;8.60;99.90
8563;DHT22;16392;52.508;13.468;2022-09-28T00:42:34;8.60;99.90
8563;DHT22;16392;52.508;13.468;2022-09-28T00:45:01;8.60;99.90
8563;DHT22;16392;52.508;13.468;2022-09-28T00:47:42;8.60;99.90
8563;DHT22;16392;52.508;13.468;2022-09-28T00:50:19;8.60;99.90
8563;DHT22;16392;52.508;13.468;2022-09-28T00:52:52;8.60;99.90
8563;DHT22;16392;52.508;13.468;2022-09-28T00:55:25;8.50;99.90
8563;DHT22;16392;52.508;13.468;2022-09-28T00:57:56;8.60;99.90
8563;DHT22;16392;52.508;13.468;2022-09-28T01:00:24;8.60;99.90
8563;DHT22;16392;52.508;13.468;2022-09-28T01:02:51;8.60;99.90
8563;DHT22;16392;52.508;13.468;2022-09-28T01:05:18;8.60;99.90
8563;DHT22;16392;52.508;13.468;2022-09-28T01:07:46;8.70;99.90
8563;DHT22;16392;52.508;13.468;2022-09-28T01:10:14;8.70;99.90
8563;DHT22;16392;52.508;13.468;2022-09-28T01:12:42;8.70;99.90
8563;DHT22;16392;52.508;13.468;2022-09-28T01:15:09;8.80;99.90
8563;DHT22;16392;52.508;13.468;2022-09-28T01:17:44;8.80;99.90
8563;DHT22;16392;52.508;13.468;2022-09-28T01:20:33;8.80;99.90
8563;DHT22;16392;52.508;13.468;2022-09-28T01:23:24;8.80;99.90
8563;DHT22;16392;52.508;13.468;2022-09-28T01:26:09;8.80;99.90
8563;DHT22;16392;52.508;13.468;2022-09-28T01:28:37;8.80;99.90
8563;DHT22;16392;52.508;13.468;2022-09-28T01:31:09;8.80;99.90
8563;DHT22;16392;52.508;13.468;2022-09-28T01:33:40;8.90;99.90
8563;DHT22;16392;52.508;13.468;2022-09-28T01:36:11;8.80;99.90
8563;DHT22;16392;52.508;13.468;2022-09-28T01:38:43;8.80;99.90
8563;DHT22;16392;52.508;13.468;2022-09-28T01:41:13;8.80;99.90
8563;DHT22;16392;52.508;13.468;2022-09-28T01:43:46;8.80;99.90
8563;DHT22;16392;52.508;13.468;2022-09-28T01:46:16;8.80;99.90
8563;DHT22;16392;52.508;13.468;2022-09-28T01:48:46;8.80;99.90
8563;DHT22;16392;52.508;13.468;2022-09-28T01:51:19;8.80;99.90
8563;DHT22;16392;52.508;13.468;2022-09-28T01:53:51;8.90;99.90
8563;DHT22;16392;52.508;13.468;2022-09-28T01:56:25;8.90;99.90
8563;DHT22;16392;52.508;13.468;2022-09-28T01:58:55;8.90;99.90
8563;DHT22;16392;52.508;13.468;2022-09-28T02:01:27;8.90;99.90
8563;DHT22;16392;52.508;13.468;2022-09-28T02:03:59;8.90;99.90
8563;DHT22;16392;52.508;13.468;2022-09-28T02:06:30;8.90;99.90
8563;DHT22;16392;52.508;13.468;2022-09-28T02:09:02;8.90;99.90
8563;DHT22;16392;52.508;13.468;2022-09-28T02:11:32;8.90;99.90
8563;DHT22;16392;52.508;13.468;2022-09-28T02:14:03;8.90;99.90
8563;DHT22;16392;52.508;13.468;2022-09-28T02:16:34;8.90;99.90
8563;DHT22;16392;52.508;13.468;2022-09-28T02:19:03;8.90;99.90
8563;DHT22;16392;52.508;13.468;2022-09-28T02:21:32;8.90;99.90
8563;DHT22;16392;52.508;13.468;2022-09-28T02:24:09;8.80;99.90
8563;DHT22;16392;52.508;13.468;2022-09-28T02:26:42;8.80;99.90
8563;DHT22;16392;52.508;13.468;2022-09-28T02:29:09;8.80;99.90
8563;DHT22;16392;52.508;13.468;2022-09-28T02:31:37;8.80;99.90
8563;DHT22;16392;52.508;13.468;2022-09-28T02:34:03;8.80;99.90
8563;DHT22;16392;52.508;13.468;2022-09-28T02:36:31;8.80;99.90
8563;DHT22;16392;52.508;13.468;2022-09-28T02:38:59;8.80;99.90
8563;DHT22;16392;52.508;13.468;2022-09-28T02:41:36;8.80;99.90
8563;DHT22;16392;52.508;13.468;2022-09-28T02:44:15;8.70;99.90
8563;DHT22;16392;52.508;13.468;2022-09-28T02:46:48;8.70;99.90
8563;DHT22;16392;52.508;13.468;2022-09-28T02:49:24;8.70;99.90
8563;DHT22;16392;52.508;13.468;2022-09-28T02:52:11;8.70;99.90
8563;DHT22;16392;52.508;13.468;2022-09-28T02:55:05;8.70;99.90
8563;DHT22;16392;52.508;13.468;2022-09-28T02:57:46;8.70;99.90
8563;DHT22;16392;52.508;13.468;2022-09-28T03:00:20;8.70;99.90
8563;DHT22;16392;52.508;13.468;2022-09-28T03:02:53;8.70;99.90
8563;DHT22;16392;52.508;13.468;2022-09-28T03:05:30;8.60;99.90
8563;DHT22;16392;52.508;13.468;2022-09-28T03:07:59;8.60;99.90
8563;DHT22;16392;52.508;13.468;2022-09-28T03:10:31;8.50;99.90
8563;DHT22;16392;52.508;13.468;2022-09-28T03:12:59;8.50;99.90
8563;DHT22;16392;52.508;13.468;2022-09-28T03:15:29;8.50;99.90
8563;DHT22;16392;52.508;13.468;2022-09-28T03:17:57;8.50;99.90
8563;DHT22;16392;52.508;13.468;2022-09-28T03:20:24;8.40;99.90
8563;DHT22;16392;52.508;13.468;2022-09-28T03:22:50;8.40;99.90
8563;DHT22;16392;52.508;13.468;2022-09-28T03:25:17;8.40;99.90
8563;DHT22;16392;52.508;13.468;2022-09-28T03:27:44;8.40;99.90
8563;DHT22;16392;52.508;13.468;2022-09-28T03:30:11;8.50;99.90
8563;DHT22;16392;52.508;13.468;2022-09-28T03:32:40;8.40;99.90
8563;DHT22;16392;52.508;13.468;2022-09-28T03:35:08;8.40;99.90
8563;DHT22;16392;52.508;13.468;2022-09-28T03:37:36;8.40;99.90
8563;DHT22;16392;52.508;13.468;2022-09-28T03:40:03;8.40;99.90
8563;DHT22;16392;52.508;13.468;2022-09-28T03:42:30;8.40;99.90
8563;DHT22;16392;52.508;13.468;2022-09-28T03:44:57;8.30;99.90
8563;DHT22;16392;52.508;13.468;2022-09-28T03:47:23;8.30;99.90
8563;DHT22;16392;52.508;13.468;2022-09-28T03:49:51;8.20;99.90
8563;DHT22;16392;52.508;13.468;2022-09-28T03:52:18;8.10;99.90
8563;DHT22;16392;52.508;13.468;2022-09-28T03:54:44;8.00;99.90
8563;DHT22;16392;52.508;13.468;2022-09-28T03:57:11;8.00;99.90
8563;DHT22;16392;52.508;13.468;2022-09-28T03:59:37;8.00;99.90
8563;DHT22;16392;52.508;13.468;2022-09-28T04:02:04;7.90;99.90
8563;DHT22;16392;52.508;13.468;2022-09-28T04:04:31;7.80;99.90
8563;DHT22;16392;52.508;13.468;2022-09-28T04:06:58;7.90;99.90
8563;DHT22;16392;52.508;13.468;2022-09-28T04:09:25;7.90;99.90
8563;DHT22;16392;52.508;13.468;2022-09-28T04:11:52;7.90;99.90
8563;DHT22;16392;52.508;13.468;2022-09-28T04:14:18;8.00;99.90
8563;DHT22;16392;52.508;13.468;2022-09-28T04:16:45;7.90;99.90
8563;DHT22;16392;52.508;13.468;2022-09-28T04:19:13;7.90;99.90
8563;DHT22;16392;52.508;13.468;2022-09-28T04:21:39;7.90;99.90
8563;DHT22;16392;52.508;13.468;2022-09-28T04:24:08;7.90;99.90
8563;DHT22;16392;52.508;13.468;2022-09-28T04:26:34;7.90;99.90
8563;DHT22;16392;52.508;13.468;2022-09-28T04:29:01;7.90;99.90
8563;DHT22;16392;52.508;13.468;2022-09-28T04:31:44;7.90;99.90
8563;DHT22;16392;52.508;13.468;2022-09-28T04:34:12;7.90;99.90
8563;DHT22;16392;52.508;13.468;2022-09-28T04:36:39;7.90;99.90
8563;DHT22;16392;52.508;13.468;2022-09-28T04:39:07;8.00;99.90
8563;DHT22;16392;52.508;13.468;2022-09-28T04:41:33;8.00;99.90
8563;DHT22;16392;52.508;13.468;2022-09-28T04:44:00;8.10;99.90
8563;DHT22;16392;52.508;13.468;2022-09-28T04:46:27;8.10;99.90
8563;DHT22;16392;52.508;13.468;2022-09-28T04:48:54;8.10;99.90
8563;DHT22;16392;52.508;13.468;2022-09-28T04:51:20;8.20;99.90
8563;DHT22;16392;52.508;13.468;2022-09-28T04:53:47;8.20;99.90
8563;DHT22;16392;52.508;13.468;2022-09-28T04:56:16;8.20;99.90
8563;DHT22;16392;52.508;13.468;2022-09-28T04:58:44;8.20;99.90
8563;DHT22;16392;52.508;13.468;2022-09-28T05:01:12;8.20;99.90
8563;DHT22;16392;52.508;13.468;2022-09-28T05:03:39;8.20;99.90
8563;DHT22;16392;52.508;13.468;2022-09-28T05:06:06;8.30;99.90
8563;DHT22;16392;52.508;13.468;2022-09-28T05:08:34;8.30;99.90
8563;DHT22;16392;52.508;13.468;2022-09-28T05:11:01;8.20;99.90
8563;DHT22;16392;52.508;13.468;2022-09-28T05:13:30;8.30;99.90
8563;DHT22;16392;52.508;13.468;2022-09-28T05:15:58;8.30;99.90
8563;DHT22;16392;52.508;13.468;2022-09-28T05:18:24;8.30;99.90
8563;DHT22;16392;52.508;13.468;2022-09-28T05:20:51;8.30;99.90
8563;DHT22;16392;52.508;13.468;2022-09-28T05:23:18;8.30;99.90
8563;DHT22;16392;52.508;13.468;2022-09-28T05:25:44;8.40;99.90
8563;DHT22;16392;52.508;13.468;2022-09-28T05:28:11;8.40;99.90
8563;DHT22;16392;52.508;13.468;2022-09-28T05:30:39;8.40;99.90
8563;DHT22;16392;52.508;13.468;2022-09-28T05:33:06;8.50;99.90
8563;DHT22;16392;52.508;13.468;2022-09-28T05:35:33;8.50;99.90
8563;DHT22;16392;52.508;13.468;2022-09-28T05:38:02;8.60;99.90
8563;DHT22;16392;52.508;13.468;2022-09-28T05:40:30;8.80;99.90
8563;DHT22;16392;52.508;13.468;2022-09-28T05:42:58;8.80;99.90
8563;DHT22;16392;52.508;13.468;2022-09-28T05:45:26;8.70;99.90
8563;DHT22;16392;52.508;13.468;2022-09-28T05:47:55;8.70;99.90
8563;DHT22;16392;52.508;13.468;2022-09-28T05:50:22;8.60;99.90
8563;DHT22;16392;52.508;13.468;2022-09-28T05:52:59;8.60;99.90
8563;DHT22;16392;52.508;13.468;2022-09-28T05:55:26;8.60;99.90
8563;DHT22;16392;52.508;13.468;2022-09-28T05:57:56;8.60;99.90
8563;DHT22;16392;52.508;13.468;2022-09-28T06:00:24;8.60;99.90
8563;DHT22;16392;52.508;13.468;2022-09-28T06:02:56;8.70;99.90
8563;DHT22;16392;52.508;13.468;2022-09-28T06:05:24;8.70;99.90
8563;DHT22;16392;52.508;13.468;2022-09-28T06:07:51;9.20;99.90
8563;DHT22;16392;52.508;13.468;2022-09-28T06:10:17;9.70;99.90
8563;DHT22;16392;52.508;13.468;2022-09-28T06:12:44;10.00;99.90
8563;DHT22;16392;52.508;13.468;2022-09-28T06:15:13;10.20;99.90
8563;DHT22;16392;52.508;13.468;2022-09-28T06:17:40;10.70;99.90
8563;DHT22;16392;52.508;13.468;2022-09-28T06:20:10;11.50;99.90
8563;DHT22;16392;52.508;13.468;2022-09-28T06:22:36;12.10;99.90
8563;DHT22;16392;52.508;13.468;2022-09-28T06:25:04;13.20;99.90
8563;DHT22;16392;52.508;13.468;2022-09-28T06:27:31;14.00;1.00
8563;DHT22;16392;52.508;13.468;2022-09-28T06:29:57;14.80;1.00
8563;DHT22;16392;52.508;13.468;2022-09-28T06:32:25;15.00;1.00
8563;DHT22;16392;52.508;13.468;2022-09-28T06:34:53;14.90;67.90
8563;DHT22;16392;52.508;13.468;2022-09-28T06:37:21;14.60;99.90
8563;DHT22;16392;52.508;13.468;2022-09-28T06:39:51;14.40;99.90
8563;DHT22;16392;52.508;13.468;2022-09-28T06:42:17;14.40;99.90
8563;DHT22;16392;52.508;13.468;2022-09-28T06:44:44;14.70;99.90
8563;DHT22;16392;52.508;13.468;2022-09-28T06:47:11;14.30;99.90
8563;DHT22;16392;52.508;13.468;2022-09-28T06:49:39;14.30;1.00
8563;DHT22;16392;52.508;13.468;2022-09-28T06:52:05;14.20;1.00
8563;DHT22;16392;52.508;13.468;2022-09-28T06:54:33;14.80;99.90
8563;DHT22;16392;52.508;13.468;2022-09-28T06:57:00;15.30;99.90
8563;DHT22;16392;52.508;13.468;2022-09-28T06:59:26;15.30;99.90
8563;DHT22;16392;52.508;13.468;2022-09-28T07:01:54;15.50;99.90
8563;DHT22;16392;52.508;13.468;2022-09-28T07:04:20;16.10;1.00
8563;DHT22;16392;52.508;13.468;2022-09-28T07:06:47;16.80;1.00
8563;DHT22;16392;52.508;13.468;2022-09-28T07:09:14;17.70;1.00
8563;DHT22;16392;52.508;13.468;2022-09-28T07:11:42;18.10;1.00
8563;DHT22;16392;52.508;13.468;2022-09-28T07:14:10;18.40;99.90
8563;DHT22;16392;52.508;13.468;2022-09-28T07:16:37;18.70;1.00
8563;DHT22;16392;52.508;13.468;2022-09-28T07:19:03;18.90;1.00
8563;DHT22;16392;52.508;13.468;2022-09-28T07:21:30;19.30;99.90
8563;DHT22;16392;52.508;13.468;2022-09-28T07:23:57;18.10;1.00
8563;DHT22;16392;52.508;13.468;2022-09-28T07:26:24;17.70;99.90
8563;DHT22;16392;52.508;13.468;2022-09-28T07:28:52;17.90;1.00
8563;DHT22;16392;52.508;13.468;2022-09-28T07:31:20;18.70;99.90
8563;DHT22;16392;52.508;13.468;2022-09-28T07:33:48;18.90;1.00
8563;DHT22;16392;52.508;13.468;2022-09-28T07:36:15;18.80;1.00
8563;DHT22;16392;52.508;13.468;2022-09-28T07:38:45;19.00;99.90
8563;DHT22;16392;52.508;13.468;2022-09-28T07:41:12;18.90;99.90
8563;DHT22;16392;52.508;13.468;2022-09-28T07:43:39;18.30;1.00
8563;DHT22;16392;52.508;13.468;2022-09-28T07:46:08;17.80;99.90
8563;DHT22;16392;52.508;13.468;2022-09-28T07:48:38;17.10;49.50
8563;DHT22;16392;52.508;13.468;2022-09-28T07:51:06;16.70;1.00
8563;DHT22;16392;52.508;13.468;2022-09-28T07:53:33;16.60;99.90
8563;DHT22;16392;52.508;13.468;2022-09-28T07:56:01;15.40;1.00
8563;DHT22;16392;52.508;13.468;2022-09-28T07:58:34;15.20;99.90
8563;DHT22;16392;52.508;13.468;2022-09-28T08:01:07;14.50;1.00
8563;DHT22;16392;52.508;13.468;2022-09-28T08:03:35;14.10;1.00
8563;DHT22;16392;52.508;13.468;2022-09-28T08:06:03;13.60;1.00
8563;DHT22;16392;52.508;13.468;2022-09-28T08:08:32;13.40;1.00
8563;DHT22;16392;52.508;13.468;2022-09-28T08:11:00;13.40;21.10
8563;DHT22;16392;52.508;13.468;2022-09-28T08:13:27;13.10;99.80
8563;DHT22;16392;52.508;13.468;2022-09-28T08:15:59;13.30;80.90
8563;DHT22;16392;52.508;13.468;2022-09-28T08:18:28;12.80;99.90
8563;DHT22;16392;52.508;13.468;2022-09-28T08:20:55;12.50;99.90
8563;DHT22;16392;52.508;13.468;2022-09-28T08:23:39;12.80;99.90
8563;DHT22;16392;52.508;13.468;2022-09-28T08:26:06;12.80;99.90
8563;DHT22;16392;52.508;13.468;2022-09-28T08:28:33;12.40;99.90
8563;DHT22;16392;52.508;13.468;2022-09-28T08:31:01;12.30;99.90
8563;DHT22;16392;52.508;13.468;2022-09-28T08:33:29;12.10;99.90
8563;DHT22;16392;52.508;13.468;2022-09-28T08:35:56;12.00;99.90
8563;DHT22;16392;52.508;13.468;2022-09-28T08:38:23;11.90;99.90
8563;DHT22;16392;52.508;13.468;2022-09-28T08:40:58;11.80;99.90
8563;DHT22;16392;52.508;13.468;2022-09-28T08:43:41;11.80;99.90
8563;DHT22;16392;52.508;13.468;2022-09-28T08:46:11;11.90;99.90
8563;DHT22;16392;52.508;13.468;2022-09-28T08:48:47;12.10;99.90
8563;DHT22;16392;52.508;13.468;2022-09-28T08:51:21;12.10;99.90
8563;DHT22;16392;52.508;13.468;2022-09-28T08:53:53;12.00;99.90
8563;DHT22;16392;52.508;13.468;2022-09-28T08:56:28;11.90;99.90
8563;DHT22;16392;52.508;13.468;2022-09-28T08:58:59;11.60;99.90
8563;DHT22;16392;52.508;13.468;2022-09-28T09:01:32;11.80;99.90
8563;DHT22;16392;52.508;13.468;2022-09-28T09:04:04;11.90;99.90
8563;DHT22;16392;52.508;13.468;2022-09-28T09:06:41;12.10;99.90
8563;DHT22;16392;52.508;13.468;2022-09-28T09:09:18;12.60;99.90
8563;DHT22;16392;52.508;13.468;2022-09-28T09:11:52;12.30;99.90
8563;DHT22;16392;52.508;13.468;2022-09-28T09:14:52;12.20;99.90
8563;DHT22;16392;52.508;13.468;2022-09-28T09:17:27;12.30;99.90
8563;DHT22;16392;52.508;13.468;2022-09-28T09:20:05;12.30;99.90
8563;DHT22;16392;52.508;13.468;2022-09-28T09:22:39;12.50;99.90
8563;DHT22;16392;52.508;13.468;2022-09-28T09:25:17;12.90;99.90
8563;DHT22;16392;52.508;13.468;2022-09-28T09:28:19;13.00;99.90
8563;DHT22;16392;52.508;13.468;2022-09-28T09:30:54;13.20;99.90
8563;DHT22;16392;52.508;13.468;2022-09-28T09:33:42;13.70;99.90
8563;DHT22;16392;52.508;13.468;2022-09-28T09:36:25;14.30;1.00
8563;DHT22;16392;52.508;13.468;2022-09-28T09:39:09;15.10;1.00
8563;DHT22;16392;52.508;13.468;2022-09-28T09:41:49;16.50;1.00
8563;DHT22;16392;52.508;13.468;2022-09-28T09:44:39;16.60;99.90
8563;DHT22;16392;52.508;13.468;2022-09-28T09:47:10;16.30;1.00
8563;DHT22;16392;52.508;13.468;2022-09-28T09:49:42;16.40;1.00
8563;DHT22;16392;52.508;13.468;2022-09-28T09:52:16;16.50;99.90
8563;DHT22;16392;52.508;13.468;2022-09-28T09:54:45;15.60;99.90
8563;DHT22;16392;52.508;13.468;2022-09-28T09:57:16;15.10;1.00
8563;DHT22;16392;52.508;13.468;2022-09-28T09:59:45;15.50;99.90
8563;DHT22;16392;52.508;13.468;2022-09-28T10:02:20;16.30;1.00
8563;DHT22;16392;52.508;13.468;2022-09-28T10:04:49;16.60;99.90
8563;DHT22;16392;52.508;13.468;2022-09-28T10:07:22;15.70;1.00
8563;DHT22;16392;52.508;13.468;2022-09-28T10:09:50;15.20;99.90
8563;DHT22;16392;52.508;13.468;2022-09-28T10:12:21;15.10;1.00
8563;DHT22;16392;52.508;13.468;2022-09-28T10:14:48;15.50;82.30
8563;DHT22;16392;52.508;13.468;2022-09-28T10:17:17;16.00;1.00
8563;DHT22;16392;52.508;13.468;2022-09-28T10:19:51;16.20;1.00
8563;DHT22;16392;52.508;13.468;2022-09-28T10:22:23;16.50;1.00
8563;DHT22;16392;52.508;13.468;2022-09-28T10:24:52;16.40;1.00
8563;DHT22;16392;52.508;13.468;2022-09-28T10:27:24;15.50;99.90
8563;DHT22;16392;52.508;13.468;2022-09-28T10:29:54;15.40;1.00
8563;DHT22;16392;52.508;13.468;2022-09-28T10:32:22;15.70;1.00
8563;DHT22;16392;52.508;13.468;2022-09-28T10:34:50;15.40;1.00
8563;DHT22;16392;52.508;13.468;2022-09-28T10:37:19;14.80;1.00
8563;DHT22;16392;52.508;13.468;2022-09-28T10:39:50;14.70;99.90
8563;DHT22;16392;52.508;13.468;2022-09-28T10:42:20;14.80;99.90
8563;DHT22;16392;52.508;13.468;2022-09-28T10:44:50;14.80;99.90
8563;DHT22;16392;52.508;13.468;2022-09-28T10:47:20;15.20;99.90
8563;DHT22;16392;52.508;13.468;2022-09-28T10:49:49;14.90;1.00
8563;DHT22;16392;52.508;13.468;2022-09-28T10:52:36;14.90;1.00
8563;DHT22;16392;52.508;13.468;2022-09-28T10:55:23;14.50;1.00
8563;DHT22;16392;52.508;13.468;2022-09-28T10:57:50;15.10;1.00
8563;DHT22;16392;52.508;13.468;2022-09-28T11:00:30;15.30;1.00
8563;DHT22;16392;52.508;13.468;2022-09-28T11:02:57;16.00;1.00
8563;DHT22;16392;52.508;13.468;2022-09-28T11:05:25;15.00;99.90
8563;DHT22;16392;52.508;13.468;2022-09-28T11:07:55;14.50;99.90
8563;DHT22;16392;52.508;13.468;2022-09-28T11:10:24;13.70;99.90
8563;DHT22;16392;52.508;13.468;2022-09-28T11:12:52;13.30;99.90
8563;DHT22;16392;52.508;13.468;2022-09-28T11:15:23;13.20;1.00
8563;DHT22;16392;52.508;13.468;2022-09-28T11:17:51;12.90;1.00
8563;DHT22;16392;52.508;13.468;2022-09-28T11:20:32;12.80;1.00
8563;DHT22;16392;52.508;13.468;2022-09-28T11:23:17;12.70;1.00
8563;DHT22;16392;52.508;13.468;2022-09-28T11:25:55;12.70;1.00
8563;DHT22;16392;52.508;13.468;2022-09-28T11:28:28;12.80;6.20
8563;DHT22;16392;52.508;13.468;2022-09-28T11:30:56;12.90;14.60
8563;DHT22;16392;52.508;13.468;2022-09-28T11:33:28;12.80;46.30
8563;DHT22;16392;52.508;13.468;2022-09-28T11:36:14;13.20;55.40
8563;DHT22;16392;52.508;13.468;2022-09-28T11:38:54;13.90;1.00
8563;DHT22;16392;52.508;13.468;2022-09-28T11:41:31;14.10;1.00
8563;DHT22;16392;52.508;13.468;2022-09-28T11:44:16;14.10;1.00
8563;DHT22;16392;52.508;13.468;2022-09-28T11:46:51;13.90;1.00
8563;DHT22;16392;52.508;13.468;2022-09-28T11:49:27;14.20;1.00
8563;DHT22;16392;52.508;13.468;2022-09-28T11:52:01;13.80;1.00
8563;DHT22;16392;52.508;13.468;2022-09-28T11:54:33;13.30;1.00
8563;DHT22;16392;52.508;13.468;2022-09-28T11:57:03;12.90;1.00
8563;DHT22;16392;52.508;13.468;2022-09-28T11:59:33;12.70;1.00
8563;DHT22;16392;52.508;13.468;2022-09-28T12:02:09;12.60;1.00
8563;DHT22;16392;52.508;13.468;2022-09-28T12:04:40;12.30;1.00
8563;DHT22;16392;52.508;13.468;2022-09-28T12:07:14;12.30;4.30
8563;DHT22;16392;52.508;13.468;2022-09-28T12:09:49;12.60;1.00
8563;DHT22;16392;52.508;13.468;2022-09-28T12:12:21;12.90;1.00
8563;DHT22;16392;52.508;13.468;2022-09-28T12:14:53;13.20;1.00
8563;DHT22;16392;52.508;13.468;2022-09-28T12:17:23;13.40;1.00
8563;DHT22;16392;52.508;13.468;2022-09-28T12:19:55;13.40;1.00
8563;DHT22;16392;52.508;13.468;2022-09-28T12:22:30;13.40;1.00
8563;DHT22;16392;52.508;13.468;2022-09-28T12:25:01;13.70;1.00
8563;DHT22;16392;52.508;13.468;2022-09-28T12:27:31;14.00;1.00
8563;DHT22;16392;52.508;13.468;2022-09-28T12:30:10;13.60;1.00
8563;DHT22;16392;52.508;13.468;2022-09-28T12:32:40;13.80;1.00
8563;DHT22;16392;52.508;13.468;2022-09-28T12:35:13;13.80;1.00
8563;DHT22;16392;52.508;13.468;2022-09-28T12:37:55;14.00;1.00
8563;DHT22;16392;52.508;13.468;2022-09-28T12:40:36;14.00;58.30
8563;DHT22;16392;52.508;13.468;2022-09-28T12:46:22;13.90;1.00
8563;DHT22;16392;52.508;13.468;2022-09-28T12:49:07;13.60;1.00
8563;DHT22;16392;52.508;13.468;2022-09-28T12:51:45;13.50;99.90
8563;DHT22;16392;52.508;13.468;2022-09-28T12:54:28;13.60;99.90
8563;DHT22;16392;52.508;13.468;2022-09-28T12:57:11;13.90;99.90
8563;DHT22;16392;52.508;13.468;2022-09-28T12:59:51;13.80;1.00
8563;DHT22;16392;52.508;13.468;2022-09-28T13:02:41;13.80;99.90
8563;DHT22;16392;52.508;13.468;2022-09-28T13:05:35;13.70;99.90
8563;DHT22;16392;52.508;13.468;2022-09-28T13:08:12;13.80;1.00
8563;DHT22;16392;52.508;13.468;2022-09-28T13:10:46;13.50;8.60
8563;DHT22;16392;52.508;13.468;2022-09-28T13:13:28;13.30;1.00
8563;DHT22;16392;52.508;13.468;2022-09-28T13:16:03;13.20;99.90
8563;DHT22;16392;52.508;13.468;2022-09-28T13:18:35;13.30;99.90
8563;DHT22;16392;52.508;13.468;2022-09-28T13:21:09;13.30;1.00
8563;DHT22;16392;52.508;13.468;2022-09-28T13:23:41;13.30;99.90
8563;DHT22;16392;52.508;13.468;2022-09-28T13:26:14;13.20;99.90
8563;DHT22;16392;52.508;13.468;2022-09-28T13:28:45;13.50;1.00
8563;DHT22;16392;52.508;13.468;2022-09-28T13:31:16;13.20;1.00
8563;DHT22;16392;52.508;13.468;2022-09-28T13:33:45;13.40;1.00
8563;DHT22;16392;52.508;13.468;2022-09-28T13:36:35;13.40;99.90
8563;DHT22;16392;52.508;13.468;2022-09-28T13:39:02;13.20;99.90
8563;DHT22;16392;52.508;13.468;2022-09-28T13:41:30;13.20;99.90
8563;DHT22;16392;52.508;13.468;2022-09-28T13:44:22;13.00;99.90
8563;DHT22;16392;52.508;13.468;2022-09-28T13:47:07;12.70;1.00
8563;DHT22;16392;52.508;13.468;2022-09-28T13:49:46;12.80;1.00
8563;DHT22;16392;52.508;13.468;2022-09-28T13:52:29;12.70;1.00
8563;DHT22;16392;52.508;13.468;2022-09-28T13:55:08;13.00;1.00
8563;DHT22;16392;52.508;13.468;2022-09-28T13:57:44;13.10;1.00
8563;DHT22;16392;52.508;13.468;2022-09-28T14:00:19;12.50;1.00
8563;DHT22;16392;52.508;13.468;2022-09-28T14:02:53;12.60;1.00
8563;DHT22;16392;52.508;13.468;2022-09-28T14:05:43;12.80;1.00
8563;DHT22;16392;52.508;13.468;2022-09-28T14:08:25;12.90;1.00
8563;DHT22;16392;52.508;13.468;2022-09-28T14:10:53;12.80;1.00
8563;DHT22;16392;52.508;13.468;2022-09-28T14:13:58;12.60;1.00
8563;DHT22;16392;52.508;13.468;2022-09-28T14:16:27;12.50;1.00
8563;DHT22;16392;52.508;13.468;2022-09-28T14:18:58;12.30;1.00
8563;DHT22;16392;52.508;13.468;2022-09-28T14:21:59;12.20;1.00
8563;DHT22;16392;52.508;13.468;2022-09-28T14:24:43;12.30;1.00
8563;DHT22;16392;52.508;13.468;2022-09-28T14:27:37;12.50;99.90
8563;DHT22;16392;52.508;13.468;2022-09-28T14:30:17;12.30;1.00
8563;DHT22;16392;52.508;13.468;2022-09-28T14:32:51;12.20;1.00
8563;DHT22;16392;52.508;13.468;2022-09-28T14:35:26;12.40;1.00
8563;DHT22;16392;52.508;13.468;2022-09-28T14:37:58;12.50;1.00
8563;DHT22;16392;52.508;13.468;2022-09-28T14:40:59;12.70;1.00
8563;DHT22;16392;52.508;13.468;2022-09-28T14:43:37;13.00;99.90
8563;DHT22;16392;52.508;13.468;2022-09-28T14:46:30;12.70;99.90
8563;DHT22;16392;52.508;13.468;2022-09-28T14:48:59;12.60;1.00
8563;DHT22;16392;52.508;13.468;2022-09-28T14:54:41;12.70;1.00
8563;DHT22;16392;52.508;13.468;2022-09-28T14:57:15;12.70;1.00
8563;DHT22;16392;52.508;13.468;2022-09-28T14:59:43;12.60;1.00
8563;DHT22;16392;52.508;13.468;2022-09-28T15:02:19;12.40;1.00
8563;DHT22;16392;52.508;13.468;2022-09-28T15:04:52;12.60;1.00
8563;DHT22;16392;52.508;13.468;2022-09-28T15:07:22;12.60;1.00
8563;DHT22;16392;52.508;13.468;2022-09-28T15:09:50;12.60;1.00
8563;DHT22;16392;52.508;13.468;2022-09-28T15:12:19;12.90;1.00
8563;DHT22;16392;52.508;13.468;2022-09-28T15:14:50;13.00;1.00
8563;DHT22;16392;52.508;13.468;2022-09-28T15:17:21;12.70;1.00
8563;DHT22;16392;52.508;13.468;2022-09-28T15:20:00;12.80;1.00
8563;DHT22;16392;52.508;13.468;2022-09-28T15:22:30;12.80;1.00
8563;DHT22;16392;52.508;13.468;2022-09-28T15:24:58;12.60;1.00
8563;DHT22;16392;52.508;13.468;2022-09-28T15:27:33;12.40;21.20
8563;DHT22;16392;52.508;13.468;2022-09-28T15:30:10;12.40;35.60
8563;DHT22;16392;52.508;13.468;2022-09-28T15:32:41;12.30;46.40
8563;DHT22;16392;52.508;13.468;2022-09-28T15:35:11;12.20;72.00
8563;DHT22;16392;52.508;13.468;2022-09-28T15:37:39;12.00;97.10
8563;DHT22;16392;52.508;13.468;2022-09-28T15:40:11;11.90;99.90
8563;DHT22;16392;52.508;13.468;2022-09-28T15:42:38;11.80;99.90
8563;DHT22;16392;52.508;13.468;2022-09-28T15:45:21;11.80;99.90
8563;DHT22;16392;52.508;13.468;2022-09-28T15:47:52;11.80;99.90
8563;DHT22;16392;52.508;13.468;2022-09-28T15:50:25;11.80;99.90
8563;DHT22;16392;52.508;13.468;2022-09-28T15:52:55;11.70;99.90
8563;DHT22;16392;52.508;13.468;2022-09-28T15:55:24;11.50;99.90
8563;DHT22;16392;52.508;13.468;2022-09-28T15:58:05;11.30;99.90
8563;DHT22;16392;52.508;13.468;2022-09-28T16:00:32;11.30;99.90
8563;DHT22;16392;52.508;13.468;2022-09-28T16:03:00;11.20;99.90
8563;DHT22;16392;52.508;13.468;2022-09-28T16:05:38;11.20;99.90
8563;DHT22;16392;52.508;13.468;2022-09-28T16:08:13;11.20;99.90
8563;DHT22;16392;52.508;13.468;2022-09-28T16:10:52;11.10;99.90
8563;DHT22;16392;52.508;13.468;2022-09-28T16:13:21;11.00;99.90
8563;DHT22;16392;52.508;13.468;2022-09-28T16:15:53;10.90;99.90
8563;DHT22;16392;52.508;13.468;2022-09-28T16:18:22;10.90;99.90